Time;durP1;ratioP1;P1;durP2;ratioP2;P2;SDS_P1;SDS_P2;PMS_P1;PMS_P2;Temp;Humidity;BMP_temperature;BMP_pressure;BME280_temperature;BME280_humidity;BME280_pressure;Samples;Min_cycle;Max_cycle;Signal;HPM_P1;HPM_P2
2021/10/14 00:01:41;;;;;;;13.60;8.70;;;;;;;7.78;66.55;99325.77;1781944;80;21063;-41
2021/10/14 00:04:07;;;;;;;11.70;9.28;;;;;;;7.67;66.82;99321.16;1779251;80;21020;-40
2021/10/14 00:06:34;;;;;;;15.63;9.75;;;;;;;7.60;67.00;99324.42;1773824;80;21624;-40
2021/10/14 00:09:01;;;;;;;13.90;9.68;;;;;;;7.52;67.18;99329.39;1773860;80;21033;-41
2021/10/14 00:11:28;;;;;;;14.75;9.40;;;;;;;7.41;67.34;99329.06;1774014;80;21100;-41
2021/10/14 00:13:55;;;;;;;15.43;8.88;;;;;;;7.36;67.56;99327.95;1773791;80;21008;-41
2021/10/14 00:19:08;;;;;;;16.27;9.63;;;;;;;7.34;67.77;99327.52;1779478;79;22770;-40
2021/10/14 00:21:35;;;;;;;12.90;9.88;;;;;;;7.24;68.05;99337.41;1739043;82;20994;-40
2021/10/14 00:24:04;;;;;;;14.18;9.83;;;;;;;7.27;67.90;99338.06;1738848;82;21135;-41
2021/10/14 00:26:31;;;;;;;16.87;10.45;;;;;;;7.28;67.76;99345.04;1738918;82;20942;-40
2021/10/14 00:28:58;;;;;;;15.90;10.35;;;;;;;7.22;67.72;99342.34;1738917;82;20982;-40
2021/10/14 00:31:25;;;;;;;13.48;10.18;;;;;;;7.20;67.79;99343.81;1739012;82;21528;-41
2021/10/14 00:33:52;;;;;;;14.43;9.48;;;;;;;7.20;67.70;99348.64;1739195;81;21025;-41
2021/10/14 00:36:20;;;;;;;13.88;9.55;;;;;;;7.24;67.56;99351.45;1739069;82;21123;-41
2021/10/14 00:38:47;;;;;;;15.70;10.08;;;;;;;7.22;67.51;99349.63;1738879;82;21619;-40
2021/10/14 00:41:15;;;;;;;14.87;9.80;;;;;;;7.12;67.65;99346.82;1739028;82;21021;-41
2021/10/14 00:43:42;;;;;;;15.23;10.23;;;;;;;7.07;67.66;99348.98;1739021;82;20942;-40
2021/10/14 00:46:17;;;;;;;16.17;10.60;;;;;;;7.00;67.65;99352.22;1739262;82;21101;-40
2021/10/14 00:48:46;;;;;;;16.35;10.30;;;;;;;6.90;67.61;99348.05;1738906;82;21805;-40
2021/10/14 00:51:12;;;;;;;15.35;10.55;;;;;;;6.78;67.85;99353.97;1736331;81;21596;-41
2021/10/14 00:53:40;;;;;;;13.20;8.88;;;;;;;6.70;68.10;99355.64;1726828;82;21550;-40
2021/10/14 00:56:06;;;;;;;16.10;9.60;;;;;;;6.65;68.22;99360.45;1727121;82;20985;-40
2021/10/14 00:58:34;;;;;;;16.10;10.20;;;;;;;6.61;68.38;99360.89;1726947;83;21041;-40
2021/10/14 01:01:02;;;;;;;15.65;9.50;;;;;;;6.55;68.45;99360.31;1726993;82;21559;-40
2021/10/14 01:03:29;;;;;;;14.85;9.98;;;;;;;6.48;68.49;99367.61;1726963;82;20964;-40
2021/10/14 01:05:56;;;;;;;12.88;9.90;;;;;;;6.36;68.64;99379.67;1727145;82;21072;-40
2021/10/14 01:08:24;;;;;;;14.70;10.20;;;;;;;6.26;68.92;99377.38;1726882;83;21033;-40
2021/10/14 01:10:51;;;;;;;13.60;9.70;;;;;;;6.17;69.16;99373.97;1727132;82;21127;-40
2021/10/14 01:13:18;;;;;;;14.00;9.30;;;;;;;6.20;69.22;99378.69;1727122;83;21144;-40
2021/10/14 01:15:45;;;;;;;14.85;10.43;;;;;;;6.33;68.84;99383.03;1727255;82;21072;-40
2021/10/14 01:18:13;;;;;;;16.07;10.30;;;;;;;6.34;68.49;99385.92;1720793;83;20922;-41
2021/10/14 01:20:40;;;;;;;14.98;9.75;;;;;;;6.26;68.58;99393.53;1714634;83;21726;-41
2021/10/14 01:23:06;;;;;;;15.30;10.13;;;;;;;6.21;68.58;99392.38;1714591;83;20993;-41
2021/10/14 01:25:34;;;;;;;17.12;10.75;;;;;;;6.11;68.73;99390.87;1714331;82;22324;-40
2021/10/14 01:28:02;;;;;;;20.52;10.50;;;;;;;6.02;68.94;99395.55;1714102;83;20932;-40
2021/10/14 01:30:29;;;;;;;16.35;10.15;;;;;;;5.96;69.11;99394.16;1713920;82;21085;-39
2021/10/14 01:32:55;;;;;;;15.35;10.60;;;;;;;5.96;69.10;99403.58;1713689;82;21567;-41
2021/10/14 01:35:21;;;;;;;14.35;9.30;;;;;;;5.98;69.02;99406.73;1713777;83;21009;-40
2021/10/14 01:37:48;;;;;;;13.68;10.63;;;;;;;5.98;69.04;99409.42;1713703;83;21119;-40
2021/10/14 01:40:15;;;;;;;13.48;10.63;;;;;;;5.94;69.28;99411.20;1713804;83;21060;-40
2021/10/14 01:42:41;;;;;;;17.57;11.78;;;;;;;5.88;69.60;99418.44;1714133;83;20946;-40
2021/10/14 01:45:09;;;;;;;17.60;10.88;;;;;;;5.82;69.82;99415.67;1736561;81;21038;-40
2021/10/14 01:47:36;;;;;;;16.57;11.20;;;;;;;5.78;69.93;99416.88;1735371;82;20994;-40
2021/10/14 01:50:05;;;;;;;16.25;10.03;;;;;;;5.80;70.01;99420.60;1734921;82;21151;-40
2021/10/14 01:52:31;;;;;;;17.37;10.00;;;;;;;5.88;69.84;99428.64;1718859;82;21034;-41
2021/10/14 01:54:58;;;;;;;16.82;10.70;;;;;;;5.92;69.75;99434.16;1713914;83;21788;-40
2021/10/14 01:57:25;;;;;;;18.23;11.33;;;;;;;5.92;69.69;99436.29;1713919;83;21484;-40
2021/10/14 01:59:51;;;;;;;16.70;11.38;;;;;;;5.90;69.69;99437.19;1713846;82;21045;-40
2021/10/14 02:02:18;;;;;;;16.40;10.35;;;;;;;5.87;69.72;99434.34;1713794;83;21337;-40
2021/10/14 02:04:45;;;;;;;14.83;11.20;;;;;;;5.81;69.74;99442.36;1713691;83;20967;-41
2021/10/14 02:07:11;;;;;;;16.12;10.68;;;;;;;5.73;69.91;99441.83;1714019;82;21500;-41
2021/10/14 02:09:38;;;;;;;21.17;10.93;;;;;;;5.67;70.08;99442.57;1713740;82;21324;-40
2021/10/14 02:12:05;;;;;;;15.78;10.80;;;;;;;5.70;70.07;99439.25;1713908;83;21211;-40
2021/10/14 02:14:31;;;;;;;14.43;10.82;;;;;;;5.70;70.00;99439.25;1713847;82;21800;-40
2021/10/14 02:16:58;;;;;;;18.20;10.63;;;;;;;5.65;70.11;99440.23;1713774;83;20993;-40
2021/10/14 02:19:25;;;;;;;17.70;11.20;;;;;;;5.58;70.19;99440.48;1724764;82;21052;-40
2021/10/14 02:21:52;;;;;;;14.10;10.88;;;;;;;5.54;70.29;99438.22;1726574;82;20934;-40
2021/10/14 02:24:19;;;;;;;15.00;11.03;;;;;;;5.46;70.29;99443.09;1726516;82;21021;-41
2021/10/14 02:26:45;;;;;;;14.63;10.20;;;;;;;5.42;70.41;99449.64;1726636;82;21125;-41
2021/10/14 02:29:12;;;;;;;16.37;10.80;;;;;;;5.44;70.44;99448.78;1726658;82;21491;-40
2021/10/14 02:31:40;;;;;;;16.05;10.70;;;;;;;5.45;70.31;99443.64;1726892;82;21052;-41
2021/10/14 02:34:07;;;;;;;17.77;11.95;;;;;;;5.37;70.39;99453.88;1726751;83;21709;-40
2021/10/14 02:36:34;;;;;;;13.78;10.68;;;;;;;5.28;70.54;99453.09;1726863;83;21048;-40
2021/10/14 02:39:01;;;;;;;16.82;11.70;;;;;;;5.21;70.65;99456.30;1726736;83;21531;-40
2021/10/14 02:41:27;;;;;;;16.00;11.15;;;;;;;5.14;70.80;99462.72;1726750;82;21029;-41
2021/10/14 02:43:54;;;;;;;14.25;10.03;;;;;;;5.11;70.72;99462.02;1726440;83;21010;-41
2021/10/14 02:46:21;;;;;;;13.58;10.13;;;;;;;5.14;70.65;99456.00;1726446;82;20973;-40
2021/10/14 02:48:48;;;;;;;16.67;10.90;;;;;;;5.16;70.59;99464.54;1726666;82;21052;-41
2021/10/14 02:51:14;;;;;;;13.93;10.63;;;;;;;5.11;70.68;99464.70;1726353;81;22372;-39
2021/10/14 02:53:42;;;;;;;16.65;10.75;;;;;;;5.07;70.74;99468.36;1726477;83;20992;-40
2021/10/14 02:56:09;;;;;;;16.25;11.15;;;;;;;5.00;70.88;99465.36;1726812;82;21037;-40
2021/10/14 02:58:35;;;;;;;14.55;10.95;;;;;;;4.95;71.05;99474.93;1726645;82;21020;-40
2021/10/14 03:01:01;;;;;;;18.02;11.20;;;;;;;4.94;71.11;99475.48;1721268;83;21016;-40
2021/10/14 03:03:28;;;;;;;16.50;10.95;;;;;;;5.01;71.02;99473.66;1726596;83;21085;-40
2021/10/14 03:05:55;;;;;;;18.40;12.10;;;;;;;5.03;70.97;99474.14;1726366;83;20980;-40
2021/10/14 03:08:21;;;;;;;18.00;11.57;;;;;;;4.99;71.21;99478.00;1726467;82;21100;-41
2021/10/14 03:10:48;;;;;;;16.77;11.80;;;;;;;4.93;71.26;99481.19;1726795;83;20978;-40
2021/10/14 03:13:14;;;;;;;16.05;11.68;;;;;;;4.88;71.41;99483.49;1726588;83;21040;-40
2021/10/14 03:15:42;;;;;;;17.15;12.40;;;;;;;4.84;71.46;99489.27;1726731;82;21949;-40
2021/10/14 03:18:09;;;;;;;15.45;11.30;;;;;;;4.83;71.43;99491.71;1726386;82;20969;-40
2021/10/14 03:20:35;;;;;;;17.15;11.30;;;;;;;4.89;71.30;99496.38;1726810;82;21488;-41
2021/10/14 03:23:02;;;;;;;17.95;11.60;;;;;;;4.94;71.19;99492.18;1726482;83;20984;-40
2021/10/14 03:25:29;;;;;;;18.02;12.45;;;;;;;4.99;71.06;99491.98;1726534;82;21036;-41
2021/10/14 03:27:56;;;;;;;15.88;11.97;;;;;;;4.99;70.71;99486.61;1726431;82;21906;-40
2021/10/14 03:30:22;;;;;;;18.65;12.40;;;;;;;4.96;70.48;99487.26;1726371;83;21110;-41
2021/10/14 03:32:49;;;;;;;17.32;13.45;;;;;;;4.91;70.39;99496.83;1726426;83;21052;-39
2021/10/14 03:35:16;;;;;;;16.55;12.45;;;;;;;4.80;70.46;99497.16;1726332;82;21001;-40
2021/10/14 03:37:46;;;;;;;16.80;12.07;;;;;;;4.79;70.54;99501.52;1726491;82;21036;-41
2021/10/14 03:40:11;;;;;;;21.68;12.53;;;;;;;4.82;70.63;99503.56;1726221;82;21149;-40
2021/10/14 03:42:38;;;;;;;19.50;13.00;;;;;;;4.83;70.61;99503.00;1726382;82;20984;-40
2021/10/14 03:45:07;;;;;;;20.15;13.15;;;;;;;4.77;70.80;99499.14;1726318;83;21028;-40
2021/10/14 03:47:34;;;;;;;25.82;14.55;;;;;;;4.73;70.94;99502.23;1726534;83;21025;-40
2021/10/14 03:50:00;;;;;;;21.10;14.40;;;;;;;4.71;71.10;99500.40;1726833;82;21033;-40
2021/10/14 03:52:27;;;;;;;18.02;12.43;;;;;;;4.70;71.06;99497.47;1726371;81;21157;-40
2021/10/14 03:54:54;;;;;;;18.75;13.43;;;;;;;4.73;70.99;99494.72;1726738;83;21656;-40
2021/10/14 03:57:20;;;;;;;21.80;13.78;;;;;;;4.78;70.84;99499.94;1726547;83;21033;-39
2021/10/14 03:59:47;;;;;;;19.82;13.62;;;;;;;4.87;70.68;99505.29;1726535;83;20972;-40
2021/10/14 04:02:13;;;;;;;20.88;14.68;;;;;;;4.86;70.56;99509.08;1726676;83;21014;-40
2021/10/14 04:04:40;;;;;;;20.37;14.90;;;;;;;4.79;70.65;99517.05;1726915;83;21100;-40
2021/10/14 04:07:06;;;;;;;21.57;15.30;;;;;;;4.74;71.00;99518.55;1726511;82;20937;-40
2021/10/14 04:09:33;;;;;;;23.77;15.53;;;;;;;4.68;71.36;99523.08;1726732;82;20989;-41
2021/10/14 04:12:00;;;;;;;18.57;14.23;;;;;;;4.65;71.65;99529.85;1726486;82;21058;-40
2021/10/14 04:14:26;;;;;;;21.15;14.23;;;;;;;4.69;71.76;99528.14;1721015;83;22790;-40
2021/10/14 04:16:53;;;;;;;22.37;15.15;;;;;;;4.71;71.74;99528.59;1726377;83;21192;-40
2021/10/14 04:19:19;;;;;;;19.57;14.50;;;;;;;4.69;71.96;99540.77;1726362;82;20946;-40
2021/10/14 04:21:47;;;;;;;21.27;14.40;;;;;;;4.65;72.15;99540.59;1726326;83;20961;-40
2021/10/14 04:24:19;;;;;;;19.60;14.38;;;;;;;4.61;72.34;99545.56;1726284;83;20988;-40
2021/10/14 04:26:45;;;;;;;22.13;15.50;;;;;;;4.56;72.58;99546.52;1726476;83;21000;-40
2021/10/14 04:29:12;;;;;;;19.52;14.78;;;;;;;4.59;72.73;99551.27;1726267;83;21114;-41
2021/10/14 04:31:39;;;;;;;23.65;15.30;;;;;;;4.62;72.78;99557.34;1726569;82;21530;-40
2021/10/14 04:34:07;;;;;;;21.82;15.70;;;;;;;4.63;72.96;99553.56;1726295;83;21000;-40
2021/10/14 04:36:37;;;;;;;20.95;15.60;;;;;;;4.60;73.03;99554.17;1726366;82;21456;-41
2021/10/14 04:39:07;;;;;;;25.10;16.52;;;;;;;4.59;73.23;99556.64;1726348;82;21487;-40
2021/10/14 04:41:34;;;;;;;20.48;15.10;;;;;;;4.60;73.11;99560.89;1726659;82;21959;-40
2021/10/14 04:44:02;;;;;;;21.40;14.73;;;;;;;4.65;73.06;99563.97;1726462;82;21084;-39
2021/10/14 04:46:29;;;;;;;20.35;15.18;;;;;;;4.68;73.12;99568.73;1726551;82;21057;-40
2021/10/14 04:48:57;;;;;;;24.32;16.82;;;;;;;4.65;73.22;99570.12;1726713;82;21008;-40
2021/10/14 04:51:24;;;;;;;21.80;16.15;;;;;;;4.65;73.22;99574.70;1726587;81;21052;-40
2021/10/14 04:53:50;;;;;;;20.27;14.58;;;;;;;4.66;73.33;99579.77;1726722;83;21120;-40
2021/10/14 04:56:17;;;;;;;21.70;13.98;;;;;;;4.71;73.32;99589.02;1726258;83;21012;-40
2021/10/14 04:58:43;;;;;;;21.12;14.80;;;;;;;4.78;73.15;99589.91;1726576;82;21543;-40
2021/10/14 05:01:10;;;;;;;18.90;14.95;;;;;;;4.83;73.27;99590.30;1726339;83;20945;-39
2021/10/14 05:03:37;;;;;;;23.80;15.72;;;;;;;4.80;73.17;99589.81;1726543;83;21072;-40
2021/10/14 05:06:03;;;;;;;20.48;15.10;;;;;;;4.77;73.34;99587.77;1726574;83;21539;-39
2021/10/14 05:08:30;;;;;;;20.25;15.63;;;;;;;4.76;73.35;99591.55;1726381;83;20988;-40
2021/10/14 05:10:57;;;;;;;18.60;14.05;;;;;;;4.80;73.29;99599.22;1726710;83;21017;-41
2021/10/14 05:13:23;;;;;;;18.85;13.40;;;;;;;4.90;73.19;99600.01;1726439;83;21554;-40
2021/10/14 05:15:49;;;;;;;20.90;14.78;;;;;;;5.01;73.10;99606.66;1726677;83;21040;-41
2021/10/14 05:18:16;;;;;;;20.52;15.10;;;;;;;5.01;73.10;99608.80;1726560;83;21123;-41
2021/10/14 05:20:43;;;;;;;23.65;16.25;;;;;;;5.02;73.27;99612.27;1688349;85;21530;-40
2021/10/14 05:23:09;;;;;;;20.40;15.43;;;;;;;5.04;73.32;99613.52;1688410;85;20949;-40
2021/10/14 05:25:36;;;;;;;19.17;14.25;;;;;;;5.09;73.41;99615.26;1688442;85;20948;-40
2021/10/14 05:28:03;;;;;;;19.57;14.68;;;;;;;5.18;73.35;99616.84;1688496;85;21052;-40
2021/10/14 05:30:32;;;;;;;21.45;15.32;;;;;;;5.29;73.41;99611.94;1688700;84;21134;-39
2021/10/14 05:32:58;;;;;;;21.42;16.00;;;;;;;5.35;73.54;99619.28;1688701;85;22076;-40
2021/10/14 05:35:25;;;;;;;24.05;15.90;;;;;;;5.39;73.42;99622.36;1688753;84;20993;-40
2021/10/14 05:37:52;;;;;;;21.93;14.60;;;;;;;5.41;73.32;99622.05;1655211;86;21034;-40
2021/10/14 05:40:18;;;;;;;22.05;15.25;;;;;;;5.46;73.32;99625.92;1688617;85;21062;-40
2021/10/14 05:42:45;;;;;;;21.70;15.50;;;;;;;5.53;73.33;99627.00;1688576;85;21144;-40
2021/10/14 05:45:13;;;;;;;20.77;15.72;;;;;;;5.61;73.26;99620.84;1688413;85;21530;-40
2021/10/14 05:47:40;;;;;;;23.85;16.15;;;;;;;5.63;73.34;99632.05;1655101;86;20964;-40
2021/10/14 05:50:08;;;;;;;24.32;16.80;;;;;;;5.64;73.37;99634.19;1688249;85;21024;-40
2021/10/14 05:52:34;;;;;;;19.57;14.65;;;;;;;5.64;73.31;99639.02;1712709;83;21017;-40
2021/10/14 05:55:01;;;;;;;21.07;15.13;;;;;;;5.65;73.43;99642.50;1684312;85;21178;-40
2021/10/14 05:57:27;;;;;;;20.05;14.98;;;;;;;5.76;73.36;99645.64;1718816;83;20936;-40
2021/10/14 05:59:56;;;;;;;21.37;15.90;;;;;;;5.86;73.36;99650.66;1718669;83;20933;-40
2021/10/14 06:02:23;;;;;;;21.50;16.02;;;;;;;5.92;73.32;99645.38;1718806;83;21071;-40
2021/10/14 06:04:50;;;;;;;24.98;16.90;;;;;;;5.94;73.30;99649.89;1684210;85;21558;-40
2021/10/14 06:07:18;;;;;;;21.52;15.38;;;;;;;5.93;73.19;99649.10;1718748;83;21074;-40
2021/10/14 06:09:45;;;;;;;18.52;14.58;;;;;;;5.95;73.27;99660.90;1718880;83;21003;-40
2021/10/14 06:12:13;;;;;;;23.73;16.37;;;;;;;6.00;73.32;99658.03;1718871;83;20960;-40
2021/10/14 06:14:41;;;;;;;33.15;17.50;;;;;;;6.08;73.52;99656.66;1718936;83;21486;-40
2021/10/14 06:17:08;;;;;;;23.47;16.85;;;;;;;6.10;73.50;99663.05;1718985;83;21498;-40
2021/10/14 06:19:34;;;;;;;20.68;16.65;;;;;;;6.14;73.48;99665.34;1722016;82;21082;-39
2021/10/14 06:22:02;;;;;;;20.90;15.60;;;;;;;6.16;73.53;99663.11;1726551;82;21018;-40
2021/10/14 06:24:29;;;;;;;21.00;16.25;;;;;;;6.21;73.34;99662.14;1726587;82;21499;-41
2021/10/14 06:26:56;;;;;;;22.93;15.40;;;;;;;6.30;73.28;99666.37;1726669;83;21047;-41
2021/10/14 06:29:23;;;;;;;25.92;16.93;;;;;;;6.40;73.13;99676.79;1726374;83;20969;-41
2021/10/14 06:31:50;;;;;;;22.58;16.80;;;;;;;6.43;72.94;99674.81;1726568;83;21754;-40
2021/10/14 06:34:16;;;;;;;21.60;16.45;;;;;;;6.47;72.91;99677.09;1726453;83;21550;-40
2021/10/14 06:36:43;;;;;;;22.73;15.83;;;;;;;6.52;72.88;99684.98;1726481;83;21036;-40
2021/10/14 06:39:10;;;;;;;22.73;15.35;;;;;;;6.59;72.53;99685.02;1726430;82;20968;-41
2021/10/14 06:41:36;;;;;;;21.37;15.10;;;;;;;6.68;72.18;99692.52;1726436;83;21587;-41
2021/10/14 06:44:07;;;;;;;22.52;16.65;;;;;;;6.74;71.99;99696.03;1726541;83;21746;-41
2021/10/14 06:46:37;;;;;;;26.40;16.65;;;;;;;6.77;72.05;99695.95;1726820;83;28194;-40
2021/10/14 06:49:04;;;;;;;23.12;16.75;;;;;;;6.78;72.08;99691.56;1726439;82;21061;-40
2021/10/14 06:51:32;;;;;;;22.27;15.45;;;;;;;6.83;72.03;99695.42;1737524;81;21514;-41
2021/10/14 06:53:58;;;;;;;20.40;15.55;;;;;;;6.90;71.93;99699.75;1756888;81;21096;-41
2021/10/14 06:56:25;;;;;;;22.52;15.58;;;;;;;7.02;72.13;99701.72;1756754;81;21522;-42
2021/10/14 06:58:52;;;;;;;24.32;17.30;;;;;;;7.15;71.80;99700.70;1756688;81;20961;-41
2021/10/14 07:01:18;;;;;;;24.37;16.25;;;;;;;7.22;71.28;99711.73;1756672;81;21341;-41
2021/10/14 07:03:46;;;;;;;22.55;17.55;;;;;;;7.26;71.31;99704.56;1756542;81;21068;-41
2021/10/14 07:06:14;;;;;;;25.57;17.75;;;;;;;7.34;71.25;99714.52;1756417;81;20969;-41
2021/10/14 07:08:42;;;;;;;25.05;16.65;;;;;;;7.38;70.57;99720.83;1756722;81;21123;-41
2021/10/14 07:11:08;;;;;;;23.35;16.42;;;;;;;7.47;70.59;99721.31;1756409;81;20989;-41
2021/10/14 07:13:36;;;;;;;19.42;14.87;;;;;;;7.55;70.64;99722.59;1756492;81;21020;-41
2021/10/14 07:16:04;;;;;;;23.35;17.48;;;;;;;7.63;70.50;99726.34;1756592;81;20941;-40
2021/10/14 07:18:31;;;;;;;23.87;16.23;;;;;;;7.67;70.03;99727.27;1756659;81;21028;-40
2021/10/14 07:20:58;;;;;;;21.23;15.90;;;;;;;7.69;69.86;99728.53;1756544;81;21721;-41
2021/10/14 07:23:24;;;;;;;24.23;16.45;;;;;;;7.73;69.60;99725.95;1756462;81;20890;-41
2021/10/14 07:25:51;;;;;;;19.30;15.45;;;;;;;7.77;69.28;99728.20;1756665;81;21512;-40
2021/10/14 07:28:17;;;;;;;21.82;15.58;;;;;;;7.81;69.49;99728.56;1756402;81;21033;-41
2021/10/14 07:30:44;;;;;;;24.10;16.35;;;;;;;7.87;69.30;99729.15;1756658;81;20986;-40
2021/10/14 07:33:10;;;;;;;25.00;17.17;;;;;;;7.91;69.29;99734.11;1756647;81;21949;-42
2021/10/14 07:35:39;;;;;;;20.50;16.20;;;;;;;7.94;69.23;99725.33;1756578;81;20961;-41
2021/10/14 07:38:14;;;;;;;21.27;15.88;;;;;;;8.03;69.08;99726.06;1756638;81;20925;-41
2021/10/14 07:40:41;;;;;;;21.75;16.20;;;;;;;8.14;68.64;99720.44;1755668;81;21025;-40
2021/10/14 07:43:12;;;;;;;24.75;16.95;;;;;;;8.20;68.29;99719.12;1756628;81;21079;-41
2021/10/14 07:45:41;;;;;;;24.57;17.82;;;;;;;8.23;67.84;99722.48;1756589;81;21473;-41
2021/10/14 07:48:07;;;;;;;27.55;17.85;;;;;;;8.26;68.18;99729.15;1756478;81;20930;-41
2021/10/14 07:50:36;;;;;;;24.40;16.70;;;;;;;8.31;67.91;99728.17;1756392;81;20972;-41
2021/10/14 07:53:16;;;;;;;23.15;16.00;;;;;;;8.36;67.70;99730.66;1756433;81;21011;-40
2021/10/14 07:55:43;;;;;;;25.65;15.72;;;;;;;8.45;67.21;99733.48;1713987;82;20992;-40
2021/10/14 07:58:10;;;;;;;23.42;16.27;;;;;;;8.46;67.15;99741.03;1689558;84;22344;-41
2021/10/14 08:00:39;;;;;;;24.95;17.07;;;;;;;8.46;67.37;99745.09;1715638;83;20988;-41
2021/10/14 08:03:06;;;;;;;23.70;17.37;;;;;;;8.50;67.36;99743.28;1687102;85;20988;-42
2021/10/14 08:05:34;;;;;;;22.70;16.25;;;;;;;8.52;67.06;99752.62;1687032;85;20998;-41
2021/10/14 08:08:01;;;;;;;20.57;15.50;;;;;;;8.59;67.08;99752.87;1715830;83;21040;-40
2021/10/14 08:10:29;;;;;;;21.82;16.00;;;;;;;8.72;66.89;99748.25;1687256;85;21158;-41
2021/10/14 08:12:57;;;;;;;24.82;17.48;;;;;;;8.86;66.87;99755.46;1687481;85;21573;-41
2021/10/14 08:15:24;;;;;;;21.00;16.35;;;;;;;8.95;66.15;99750.75;1715911;83;20959;-42
2021/10/14 08:17:52;;;;;;;25.17;17.10;;;;;;;9.01;65.82;99752.08;1716014;83;21040;-42
2021/10/14 08:20:18;;;;;;;25.70;16.80;;;;;;;9.05;65.28;99746.80;1685979;85;21044;-41
2021/10/14 08:22:45;;;;;;;23.10;16.87;;;;;;;9.08;65.38;99747.47;1700111;84;21736;-41
2021/10/14 08:25:14;;;;;;;22.60;16.17;;;;;;;9.18;65.56;99735.39;1712752;83;21625;-41
2021/10/14 08:27:42;;;;;;;24.75;16.27;;;;;;;9.37;65.43;99746.41;1700211;84;21552;-41
2021/10/14 08:30:12;;;;;;;21.37;15.80;;;;;;;9.58;64.54;99741.03;1712734;83;21088;-41
2021/10/14 08:32:39;;;;;;;24.50;16.10;;;;;;;9.73;63.58;99749.00;1700150;84;21056;-41
2021/10/14 08:35:07;;;;;;;25.23;16.55;;;;;;;9.81;63.35;99748.65;1684807;84;21812;-40
2021/10/14 08:37:34;;;;;;;23.73;15.28;;;;;;;9.87;63.02;99745.36;1684462;85;21030;-41
2021/10/14 08:40:00;;;;;;;23.27;16.17;;;;;;;9.92;62.70;99747.80;1684897;85;21076;-42
2021/10/14 08:42:28;;;;;;;19.35;14.85;;;;;;;9.97;62.49;99750.25;1684944;85;21010;-42
2021/10/14 08:44:54;;;;;;;25.88;17.27;;;;;;;10.00;62.59;99752.29;1684925;85;21054;-41
2021/10/14 08:47:23;;;;;;;21.23;16.12;;;;;;;10.00;61.90;99750.14;1684780;85;21001;-40
2021/10/14 08:49:50;;;;;;;24.50;13.68;;;;;;;9.95;62.08;99755.25;1684604;85;21022;-41
2021/10/14 08:52:16;;;;;;;22.30;14.90;;;;;;;9.91;61.94;99757.08;1675746;84;20986;-41
2021/10/14 08:54:43;;;;;;;22.70;14.58;;;;;;;9.90;61.90;99755.49;1721610;83;21041;-41
2021/10/14 08:57:10;;;;;;;18.48;13.95;;;;;;;9.93;62.17;99752.08;1721367;83;21496;-41
2021/10/14 08:59:37;;;;;;;22.00;14.63;;;;;;;9.99;61.81;99762.89;1721504;83;21132;-41
2021/10/14 09:02:15;;;;;;;19.48;13.83;;;;;;;10.08;61.99;99757.88;1721435;83;20965;-42
2021/10/14 09:04:56;;;;;;;18.02;13.65;;;;;;;10.16;61.57;99751.58;1721136;82;21036;-41
2021/10/14 09:07:23;;;;;;;17.65;13.15;;;;;;;10.24;61.52;99754.68;1721298;82;21100;-42
2021/10/14 09:09:50;;;;;;;20.92;13.80;;;;;;;10.37;61.34;99758.89;1721360;83;20994;-42
2021/10/14 09:12:19;;;;;;;16.75;12.78;;;;;;;10.52;61.19;99763.54;1721073;83;21736;-42
2021/10/14 09:15:07;;;;;;;19.12;12.88;;;;;;;10.69;60.56;99757.80;1721159;83;21052;-42
2021/10/14 09:17:42;;;;;;;19.92;13.70;;;;;;;10.79;59.40;99762.69;1721567;83;20981;-41
2021/10/14 09:20:36;;;;;;;21.23;12.75;;;;;;;10.83;58.99;99764.13;1719554;82;20989;-42
2021/10/14 09:23:21;;;;;;;18.80;12.37;;;;;;;10.87;59.08;99763.07;1713544;83;21096;-40
2021/10/14 09:25:49;;;;;;;20.25;12.33;;;;;;;10.92;58.76;99767.44;1713568;82;21838;-41
2021/10/14 09:28:25;;;;;;;17.73;12.53;;;;;;;10.97;58.37;99768.53;1713480;82;20931;-41
2021/10/14 09:31:05;;;;;;;14.65;10.75;;;;;;;11.03;58.41;99768.48;1713848;82;20977;-41
2021/10/14 09:33:40;;;;;;;15.43;11.12;;;;;;;11.15;57.68;99768.37;1727868;82;21085;-41
2021/10/14 09:36:26;;;;;;;14.87;11.03;;;;;;;11.26;58.03;99767.26;1743170;82;21037;-41
2021/10/14 09:38:57;;;;;;;17.70;10.95;;;;;;;11.36;57.00;99769.42;1713586;82;21162;-41
2021/10/14 09:41:25;;;;;;;12.23;9.68;;;;;;;11.42;56.48;99766.66;1713766;83;20938;-42
2021/10/14 09:43:55;;;;;;;13.62;9.40;;;;;;;11.49;56.60;99766.80;1726046;81;20966;-40
2021/10/14 09:46:49;;;;;;;12.03;9.37;;;;;;;11.62;55.43;99770.16;1742886;81;21069;-42
2021/10/14 09:49:32;;;;;;;12.18;9.28;;;;;;;11.71;55.36;99773.48;1740823;82;21098;-42
2021/10/14 09:52:00;;;;;;;15.20;9.60;;;;;;;11.82;54.93;99778.57;1725904;82;21515;-41
2021/10/14 09:54:28;;;;;;;12.53;10.03;;;;;;;11.95;54.71;99775.16;1713595;83;21068;-41
2021/10/14 09:56:56;;;;;;;13.40;9.93;;;;;;;12.06;54.35;99773.41;1713563;83;21039;-41
2021/10/14 09:59:23;;;;;;;13.70;9.43;;;;;;;12.14;53.30;99776.50;1713474;83;21033;-42
2021/10/14 10:01:56;;;;;;;13.08;9.23;;;;;;;12.20;53.07;99781.84;1716489;82;21100;-42
2021/10/14 10:04:26;;;;;;;13.98;9.53;;;;;;;12.17;52.54;99782.56;1741361;82;21109;-41
2021/10/14 10:06:55;;;;;;;14.80;9.75;;;;;;;12.05;52.65;99778.06;1708260;83;21019;-41
2021/10/14 10:09:23;;;;;;;13.72;10.20;;;;;;;11.93;52.95;99778.79;1709783;84;20995;-41
2021/10/14 10:11:53;;;;;;;15.50;10.68;;;;;;;11.85;53.53;99779.23;1709826;84;20936;-42
2021/10/14 10:14:24;;;;;;;13.50;10.00;;;;;;;11.89;53.81;99782.02;1709906;83;21066;-41
2021/10/14 10:17:06;;;;;;;13.30;10.13;;;;;;;12.08;53.50;99792.88;1708394;84;21805;-40
2021/10/14 10:19:46;;;;;;;13.45;10.18;;;;;;;12.23;53.46;99785.78;1740884;82;20963;-41
2021/10/14 10:22:39;;;;;;;12.50;8.95;;;;;;;12.42;52.48;99798.78;1748923;82;21611;-41
2021/10/14 10:25:28;;;;;;;13.72;10.05;;;;;;;12.41;52.35;99802.63;1749459;82;20987;-41
2021/10/14 10:27:57;;;;;;;13.05;9.20;;;;;;;12.38;52.23;99797.93;1749722;82;21095;-41
2021/10/14 10:30:35;;;;;;;12.45;8.15;;;;;;;12.51;52.09;99797.17;1749888;81;21825;-42
2021/10/14 10:33:02;;;;;;;12.78;8.00;;;;;;;12.75;50.49;99796.04;1749405;82;21100;-41
2021/10/14 10:35:47;;;;;;;11.03;8.53;;;;;;;12.92;50.04;99806.45;1744416;82;21063;-41
2021/10/14 10:38:22;;;;;;;13.28;9.38;;;;;;;12.98;49.36;99796.80;1738779;82;20974;-42
2021/10/14 10:40:52;;;;;;;11.28;8.35;;;;;;;12.85;49.57;99793.50;1751124;81;21022;-41
2021/10/14 10:43:26;;;;;;;10.48;7.55;;;;;;;12.73;49.90;99795.63;1751015;82;21074;-42
2021/10/14 10:45:56;;;;;;;13.40;8.65;;;;;;;12.59;50.17;99798.30;1730528;82;21029;-41
2021/10/14 10:48:36;;;;;;;14.07;8.58;;;;;;;12.47;50.57;99798.48;1750920;81;21547;-41
2021/10/14 10:51:06;;;;;;;12.82;8.40;;;;;;;12.41;50.79;99804.56;1745760;82;21051;-42
2021/10/14 10:53:45;;;;;;;10.00;8.03;;;;;;;12.34;50.82;99802.52;1721348;83;21077;-42
2021/10/14 10:56:38;;;;;;;12.73;8.03;;;;;;;12.29;50.02;99795.22;1721319;83;21779;-41
2021/10/14 10:59:06;;;;;;;9.73;7.10;;;;;;;12.20;50.30;99795.42;1721110;83;20961;-41
2021/10/14 11:01:32;;;;;;;8.85;6.55;;;;;;;12.13;49.63;99797.45;1733805;82;21022;-42
2021/10/14 11:04:04;;;;;;;11.20;6.87;;;;;;;11.90;49.63;99749.63;1750239;82;21033;-41
2021/10/14 11:06:33;;;;;;;8.98;6.37;;;;;;;12.37;49.46;99791.48;1751133;82;21020;-42
2021/10/14 11:09:11;;;;;;;9.45;6.45;;;;;;;12.66;48.67;99790.84;1751417;82;21128;-40
2021/10/14 11:11:36;;;;;;;8.25;6.15;;;;;;;13.03;48.52;99783.68;1750951;81;20973;-40
2021/10/14 11:14:04;;;;;;;10.70;6.28;;;;;;;13.48;45.83;99788.84;1751211;82;21580;-40
2021/10/14 11:16:32;;;;;;;8.68;5.45;;;;;;;13.85;45.21;99783.48;1751136;82;21060;-38
2021/10/14 11:19:00;;;;;;;8.83;5.67;;;;;;;14.19;44.39;99797.33;1751291;82;21064;-38
2021/10/14 11:21:27;;;;;;;11.28;6.60;;;;;;;14.52;42.18;99794.41;1715034;83;21148;-38
2021/10/14 11:23:59;;;;;;;7.62;5.72;;;;;;;14.82;43.34;99799.16;1715128;83;20941;-38
2021/10/14 11:26:31;;;;;;;7.17;5.72;;;;;;;15.14;42.65;99802.95;1715187;83;21045;-39
2021/10/14 11:29:12;;;;;;;7.97;5.60;;;;;;;15.29;41.80;99808.52;1714979;83;20980;-39
2021/10/14 11:31:46;;;;;;;6.92;5.12;;;;;;;15.26;41.72;99810.04;1715242;83;21049;-39
2021/10/14 11:34:20;;;;;;;5.70;5.10;;;;;;;15.11;41.45;99818.70;1715188;83;21141;-38
2021/10/14 11:36:53;;;;;;;4.97;3.62;;;;;;;14.89;41.15;99818.92;1715072;83;21000;-38